sensor_id;sensor_type;location;lat;lon;timestamp;P1;durP1;ratioP1;P2;durP2;ratioP2
39612;SDS011;25303;48.896;13.342;2023-08-12T00:01:23;3.63;;;1.48;;
39612;SDS011;25303;48.896;13.342;2023-08-12T00:04:08;2.50;;;1.20;;
39612;SDS011;25303;48.896;13.342;2023-08-12T00:06:53;2.95;;;1.30;;
39612;SDS011;25303;48.896;13.342;2023-08-12T00:09:36;5.35;;;1.30;;
39612;SDS011;25303;48.896;13.342;2023-08-12T00:12:19;2.47;;;1.20;;
39612;SDS011;25303;48.896;13.342;2023-08-12T00:15:02;2.25;;;1.20;;
39612;SDS011;25303;48.896;13.342;2023-08-12T00:17:47;3.08;;;1.50;;
39612;SDS011;25303;48.896;13.342;2023-08-12T00:20:32;3.22;;;1.50;;
39612;SDS011;25303;48.896;13.342;2023-08-12T00:23:15;1.73;;;1.30;;
39612;SDS011;25303;48.896;13.342;2023-08-12T00:25:58;5.10;;;1.38;;
39612;SDS011;25303;48.896;13.342;2023-08-12T00:28:41;1.50;;;1.20;;
39612;SDS011;25303;48.896;13.342;2023-08-12T00:31:23;2.10;;;1.40;;
39612;SDS011;25303;48.896;13.342;2023-08-12T00:34:06;4.03;;;1.55;;
39612;SDS011;25303;48.896;13.342;2023-08-12T00:36:51;2.25;;;1.40;;
39612;SDS011;25303;48.896;13.342;2023-08-12T00:39:36;3.88;;;1.55;;
39612;SDS011;25303;48.896;13.342;2023-08-12T00:42:20;1.95;;;1.20;;
39612;SDS011;25303;48.896;13.342;2023-08-12T00:45:04;1.83;;;1.40;;
39612;SDS011;25303;48.896;13.342;2023-08-12T00:47:51;3.20;;;1.40;;
39612;SDS011;25303;48.896;13.342;2023-08-12T00:50:35;3.38;;;1.45;;
39612;SDS011;25303;48.896;13.342;2023-08-12T00:53:20;3.72;;;1.40;;
39612;SDS011;25303;48.896;13.342;2023-08-12T00:56:03;2.40;;;1.33;;
39612;SDS011;25303;48.896;13.342;2023-08-12T00:58:48;2.33;;;1.92;;
39612;SDS011;25303;48.896;13.342;2023-08-12T01:01:31;1.75;;;1.40;;
39612;SDS011;25303;48.896;13.342;2023-08-12T01:04:14;3.53;;;1.48;;
39612;SDS011;25303;48.896;13.342;2023-08-12T01:06:57;2.60;;;1.20;;
39612;SDS011;25303;48.896;13.342;2023-08-12T01:09:43;4.53;;;1.90;;
39612;SDS011;25303;48.896;13.342;2023-08-12T01:12:26;2.67;;;1.50;;
39612;SDS011;25303;48.896;13.342;2023-08-12T01:15:15;1.80;;;1.42;;
39612;SDS011;25303;48.896;13.342;2023-08-12T01:18:03;2.10;;;1.40;;
39612;SDS011;25303;48.896;13.342;2023-08-12T01:20:49;2.80;;;1.50;;
39612;SDS011;25303;48.896;13.342;2023-08-12T01:26:18;1.92;;;1.60;;
39612;SDS011;25303;48.896;13.342;2023-08-12T01:29:01;2.38;;;1.52;;
39612;SDS011;25303;48.896;13.342;2023-08-12T01:31:45;1.85;;;1.52;;
39612;SDS011;25303;48.896;13.342;2023-08-12T01:34:37;4.00;;;1.50;;
39612;SDS011;25303;48.896;13.342;2023-08-12T01:37:28;2.10;;;1.45;;
39612;SDS011;25303;48.896;13.342;2023-08-12T01:40:13;2.60;;;1.70;;
39612;SDS011;25303;48.896;13.342;2023-08-12T01:42:57;3.35;;;1.50;;
39612;SDS011;25303;48.896;13.342;2023-08-12T01:45:41;1.98;;;1.50;;
39612;SDS011;25303;48.896;13.342;2023-08-12T01:48:25;2.28;;;1.55;;
39612;SDS011;25303;48.896;13.342;2023-08-12T01:51:08;2.20;;;1.67;;
39612;SDS011;25303;48.896;13.342;2023-08-12T01:53:51;2.75;;;1.83;;
39612;SDS011;25303;48.896;13.342;2023-08-12T01:56:35;2.95;;;1.65;;
39612;SDS011;25303;48.896;13.342;2023-08-12T01:59:18;3.58;;;1.65;;
39612;SDS011;25303;48.896;13.342;2023-08-12T02:02:01;2.22;;;1.73;;
39612;SDS011;25303;48.896;13.342;2023-08-12T02:04:44;3.13;;;1.60;;
39612;SDS011;25303;48.896;13.342;2023-08-12T02:07:27;1.83;;;1.42;;
39612;SDS011;25303;48.896;13.342;2023-08-12T02:10:10;3.33;;;1.63;;
39612;SDS011;25303;48.896;13.342;2023-08-12T02:12:54;1.60;;;1.38;;
39612;SDS011;25303;48.896;13.342;2023-08-12T02:15:37;1.75;;;1.30;;
39612;SDS011;25303;48.896;13.342;2023-08-12T02:18:25;3.15;;;1.45;;
39612;SDS011;25303;48.896;13.342;2023-08-12T02:21:08;3.92;;;1.80;;
39612;SDS011;25303;48.896;13.342;2023-08-12T02:23:51;3.33;;;1.65;;
39612;SDS011;25303;48.896;13.342;2023-08-12T02:26:34;2.38;;;1.50;;
39612;SDS011;25303;48.896;13.342;2023-08-12T02:29:18;2.38;;;1.33;;
39612;SDS011;25303;48.896;13.342;2023-08-12T02:32:01;2.05;;;1.30;;
39612;SDS011;25303;48.896;13.342;2023-08-12T02:34:44;2.70;;;1.48;;
39612;SDS011;25303;48.896;13.342;2023-08-12T02:37:27;2.15;;;1.40;;
39612;SDS011;25303;48.896;13.342;2023-08-12T02:40:10;2.10;;;1.40;;
39612;SDS011;25303;48.896;13.342;2023-08-12T02:42:53;2.80;;;1.60;;
39612;SDS011;25303;48.896;13.342;2023-08-12T02:45:38;2.45;;;1.67;;
39612;SDS011;25303;48.896;13.342;2023-08-12T02:48:21;2.83;;;1.60;;
39612;SDS011;25303;48.896;13.342;2023-08-12T02:51:04;2.05;;;1.30;;
39612;SDS011;25303;48.896;13.342;2023-08-12T02:53:47;1.80;;;1.40;;
39612;SDS011;25303;48.896;13.342;2023-08-12T02:56:30;2.53;;;1.40;;
39612;SDS011;25303;48.896;13.342;2023-08-12T02:59:12;2.08;;;1.60;;
39612;SDS011;25303;48.896;13.342;2023-08-12T03:01:57;2.63;;;1.50;;
39612;SDS011;25303;48.896;13.342;2023-08-12T03:07:23;2.55;;;1.50;;
39612;SDS011;25303;48.896;13.342;2023-08-12T03:10:07;3.80;;;1.60;;
39612;SDS011;25303;48.896;13.342;2023-08-12T03:12:50;1.43;;;1.30;;
39612;SDS011;25303;48.896;13.342;2023-08-12T03:15:38;2.03;;;1.50;;
39612;SDS011;25303;48.896;13.342;2023-08-12T03:18:23;1.60;;;1.23;;
39612;SDS011;25303;48.896;13.342;2023-08-12T03:21:06;1.65;;;1.25;;
39612;SDS011;25303;48.896;13.342;2023-08-12T03:26:34;2.47;;;1.20;;
39612;SDS011;25303;48.896;13.342;2023-08-12T03:29:17;3.30;;;1.70;;
39612;SDS011;25303;48.896;13.342;2023-08-12T03:32:02;2.75;;;1.45;;
39612;SDS011;25303;48.896;13.342;2023-08-12T03:34:46;2.70;;;1.42;;
39612;SDS011;25303;48.896;13.342;2023-08-12T03:37:30;2.35;;;1.40;;
39612;SDS011;25303;48.896;13.342;2023-08-12T03:40:14;1.97;;;1.70;;
39612;SDS011;25303;48.896;13.342;2023-08-12T03:42:58;2.92;;;1.40;;
39612;SDS011;25303;48.896;13.342;2023-08-12T03:45:41;3.67;;;1.80;;
39612;SDS011;25303;48.896;13.342;2023-08-12T03:48:27;3.50;;;1.40;;
39612;SDS011;25303;48.896;13.342;2023-08-12T03:51:12;4.35;;;1.40;;
39612;SDS011;25303;48.896;13.342;2023-08-12T03:53:55;2.55;;;1.30;;
39612;SDS011;25303;48.896;13.342;2023-08-12T03:56:38;3.47;;;1.70;;
39612;SDS011;25303;48.896;13.342;2023-08-12T03:59:21;2.85;;;1.75;;
39612;SDS011;25303;48.896;13.342;2023-08-12T04:02:04;1.92;;;1.48;;
39612;SDS011;25303;48.896;13.342;2023-08-12T04:04:47;2.28;;;1.33;;
39612;SDS011;25303;48.896;13.342;2023-08-12T04:07:32;2.47;;;1.58;;
39612;SDS011;25303;48.896;13.342;2023-08-12T04:10:15;3.65;;;1.65;;
39612;SDS011;25303;48.896;13.342;2023-08-12T04:12:59;3.33;;;1.60;;
39612;SDS011;25303;48.896;13.342;2023-08-12T04:15:42;1.80;;;1.40;;
39612;SDS011;25303;48.896;13.342;2023-08-12T04:18:25;4.20;;;1.60;;
39612;SDS011;25303;48.896;13.342;2023-08-12T04:21:08;2.13;;;1.50;;
39612;SDS011;25303;48.896;13.342;2023-08-12T04:23:53;3.15;;;1.48;;
39612;SDS011;25303;48.896;13.342;2023-08-12T04:26:36;2.03;;;1.58;;
39612;SDS011;25303;48.896;13.342;2023-08-12T04:29:19;2.20;;;1.48;;
39612;SDS011;25303;48.896;13.342;2023-08-12T04:32:02;1.38;;;1.05;;
39612;SDS011;25303;48.896;13.342;2023-08-12T04:34:45;2.85;;;1.50;;
39612;SDS011;25303;48.896;13.342;2023-08-12T04:37:29;1.35;;;1.13;;
39612;SDS011;25303;48.896;13.342;2023-08-12T04:45:44;1.63;;;1.20;;
39612;SDS011;25303;48.896;13.342;2023-08-12T04:48:30;2.05;;;1.20;;
39612;SDS011;25303;48.896;13.342;2023-08-12T04:51:15;2.45;;;1.40;;
39612;SDS011;25303;48.896;13.342;2023-08-12T04:53:58;2.97;;;1.17;;
39612;SDS011;25303;48.896;13.342;2023-08-12T04:59:26;1.30;;;1.10;;
39612;SDS011;25303;48.896;13.342;2023-08-12T05:02:09;1.60;;;1.20;;
39612;SDS011;25303;48.896;13.342;2023-08-12T05:04:53;2.97;;;1.30;;
39612;SDS011;25303;48.896;13.342;2023-08-12T05:07:36;1.90;;;1.20;;
39612;SDS011;25303;48.896;13.342;2023-08-12T05:10:22;1.90;;;1.30;;
39612;SDS011;25303;48.896;13.342;2023-08-12T05:13:06;2.97;;;1.27;;
39612;SDS011;25303;48.896;13.342;2023-08-12T05:15:49;1.45;;;1.13;;
39612;SDS011;25303;48.896;13.342;2023-08-12T05:18:32;1.27;;;1.15;;
39612;SDS011;25303;48.896;13.342;2023-08-12T05:21:15;1.95;;;1.20;;
39612;SDS011;25303;48.896;13.342;2023-08-12T05:23:58;1.75;;;1.10;;
39612;SDS011;25303;48.896;13.342;2023-08-12T05:26:42;1.30;;;0.90;;
39612;SDS011;25303;48.896;13.342;2023-08-12T05:29:26;2.83;;;1.00;;
39612;SDS011;25303;48.896;13.342;2023-08-12T05:32:09;2.53;;;1.23;;
39612;SDS011;25303;48.896;13.342;2023-08-12T05:34:53;1.55;;;1.00;;
39612;SDS011;25303;48.896;13.342;2023-08-12T05:37:35;2.47;;;0.98;;
39612;SDS011;25303;48.896;13.342;2023-08-12T05:40:18;1.75;;;1.05;;
39612;SDS011;25303;48.896;13.342;2023-08-12T05:43:01;1.48;;;0.90;;
39612;SDS011;25303;48.896;13.342;2023-08-12T05:45:46;1.38;;;0.98;;
39612;SDS011;25303;48.896;13.342;2023-08-12T05:48:30;2.30;;;1.10;;
39612;SDS011;25303;48.896;13.342;2023-08-12T05:51:13;2.60;;;1.00;;
39612;SDS011;25303;48.896;13.342;2023-08-12T05:53:55;2.15;;;1.08;;
39612;SDS011;25303;48.896;13.342;2023-08-12T05:56:38;1.23;;;0.90;;
39612;SDS011;25303;48.896;13.342;2023-08-12T05:59:21;1.48;;;1.10;;
39612;SDS011;25303;48.896;13.342;2023-08-12T06:02:07;1.50;;;1.07;;
39612;SDS011;25303;48.896;13.342;2023-08-12T06:04:51;1.67;;;0.98;;
39612;SDS011;25303;48.896;13.342;2023-08-12T06:07:34;1.08;;;0.90;;
39612;SDS011;25303;48.896;13.342;2023-08-12T06:10:17;1.00;;;0.90;;
39612;SDS011;25303;48.896;13.342;2023-08-12T06:13:00;1.25;;;0.93;;
39612;SDS011;25303;48.896;13.342;2023-08-12T06:15:48;1.20;;;1.00;;
39612;SDS011;25303;48.896;13.342;2023-08-12T06:18:33;1.05;;;0.70;;
39612;SDS011;25303;48.896;13.342;2023-08-12T06:21:16;0.70;;;0.65;;
39612;SDS011;25303;48.896;13.342;2023-08-12T06:23:59;1.48;;;0.80;;
39612;SDS011;25303;48.896;13.342;2023-08-12T06:26:42;0.80;;;0.60;;
39612;SDS011;25303;48.896;13.342;2023-08-12T06:29:25;1.23;;;0.60;;
39612;SDS011;25303;48.896;13.342;2023-08-12T06:32:08;0.75;;;0.70;;
39612;SDS011;25303;48.896;13.342;2023-08-12T06:34:56;1.25;;;1.00;;
39612;SDS011;25303;48.896;13.342;2023-08-12T06:37:39;1.50;;;0.77;;
39612;SDS011;25303;48.896;13.342;2023-08-12T06:40:23;2.40;;;0.80;;
39612;SDS011;25303;48.896;13.342;2023-08-12T06:43:06;1.15;;;0.70;;
39612;SDS011;25303;48.896;13.342;2023-08-12T06:45:49;1.00;;;0.80;;
39612;SDS011;25303;48.896;13.342;2023-08-12T06:48:32;1.80;;;0.90;;
39612;SDS011;25303;48.896;13.342;2023-08-12T06:51:16;1.60;;;0.90;;
39612;SDS011;25303;48.896;13.342;2023-08-12T06:53:59;1.10;;;0.80;;
39612;SDS011;25303;48.896;13.342;2023-08-12T06:56:42;1.00;;;0.70;;
39612;SDS011;25303;48.896;13.342;2023-08-12T06:59:25;1.48;;;0.85;;
39612;SDS011;25303;48.896;13.342;2023-08-12T07:02:08;0.70;;;0.70;;
39612;SDS011;25303;48.896;13.342;2023-08-12T07:04:51;0.93;;;0.80;;
39612;SDS011;25303;48.896;13.342;2023-08-12T07:07:35;1.00;;;0.90;;
39612;SDS011;25303;48.896;13.342;2023-08-12T07:10:18;1.77;;;0.70;;
39612;SDS011;25303;48.896;13.342;2023-08-12T07:13:04;1.48;;;0.90;;
39612;SDS011;25303;48.896;13.342;2023-08-12T07:15:47;1.48;;;1.00;;
39612;SDS011;25303;48.896;13.342;2023-08-12T07:18:30;0.82;;;0.80;;
39612;SDS011;25303;48.896;13.342;2023-08-12T07:21:13;1.90;;;1.08;;
39612;SDS011;25303;48.896;13.342;2023-08-12T07:23:57;1.08;;;0.77;;
39612;SDS011;25303;48.896;13.342;2023-08-12T07:26:44;2.50;;;1.08;;
39612;SDS011;25303;48.896;13.342;2023-08-12T07:29:27;2.97;;;1.20;;
39612;SDS011;25303;48.896;13.342;2023-08-12T07:32:10;1.02;;;0.80;;
39612;SDS011;25303;48.896;13.342;2023-08-12T07:34:54;1.50;;;0.98;;
39612;SDS011;25303;48.896;13.342;2023-08-12T07:37:37;1.30;;;1.00;;
39612;SDS011;25303;48.896;13.342;2023-08-12T07:40:21;1.40;;;0.98;;
39612;SDS011;25303;48.896;13.342;2023-08-12T07:43:04;1.60;;;1.25;;
39612;SDS011;25303;48.896;13.342;2023-08-12T07:45:50;1.23;;;1.00;;
39612;SDS011;25303;48.896;13.342;2023-08-12T07:48:49;2.75;;;1.17;;
39612;SDS011;25303;48.896;13.342;2023-08-12T07:51:32;2.05;;;1.08;;
39612;SDS011;25303;48.896;13.342;2023-08-12T07:54:15;1.25;;;0.80;;
39612;SDS011;25303;48.896;13.342;2023-08-12T07:56:59;1.13;;;0.80;;
39612;SDS011;25303;48.896;13.342;2023-08-12T07:59:42;1.65;;;0.85;;
39612;SDS011;25303;48.896;13.342;2023-08-12T08:02:25;1.50;;;0.85;;
39612;SDS011;25303;48.896;13.342;2023-08-12T08:05:08;1.50;;;0.95;;
39612;SDS011;25303;48.896;13.342;2023-08-12T08:07:51;0.75;;;0.75;;
39612;SDS011;25303;48.896;13.342;2023-08-12T08:10:34;1.02;;;0.88;;
39612;SDS011;25303;48.896;13.342;2023-08-12T08:13:18;1.15;;;0.82;;
39612;SDS011;25303;48.896;13.342;2023-08-12T08:16:01;1.25;;;0.80;;
39612;SDS011;25303;48.896;13.342;2023-08-12T08:18:44;1.70;;;0.98;;
39612;SDS011;25303;48.896;13.342;2023-08-12T08:21:27;1.10;;;0.80;;
39612;SDS011;25303;48.896;13.342;2023-08-12T08:24:10;2.30;;;0.70;;
39612;SDS011;25303;48.896;13.342;2023-08-12T08:26:54;1.58;;;0.93;;
39612;SDS011;25303;48.896;13.342;2023-08-12T08:29:38;0.88;;;0.65;;
39612;SDS011;25303;48.896;13.342;2023-08-12T08:32:21;0.75;;;0.73;;
39612;SDS011;25303;48.896;13.342;2023-08-12T08:35:04;1.17;;;0.77;;
39612;SDS011;25303;48.896;13.342;2023-08-12T08:37:47;1.92;;;0.93;;
39612;SDS011;25303;48.896;13.342;2023-08-12T08:40:30;1.20;;;0.77;;
39612;SDS011;25303;48.896;13.342;2023-08-12T08:43:14;2.03;;;0.73;;
39612;SDS011;25303;48.896;13.342;2023-08-12T08:46:02;1.30;;;0.90;;
39612;SDS011;25303;48.896;13.342;2023-08-12T08:51:30;0.88;;;0.70;;
39612;SDS011;25303;48.896;13.342;2023-08-12T08:54:13;1.50;;;1.00;;
39612;SDS011;25303;48.896;13.342;2023-08-12T08:56:57;1.07;;;0.83;;
39612;SDS011;25303;48.896;13.342;2023-08-12T08:59:47;1.08;;;0.77;;
39612;SDS011;25303;48.896;13.342;2023-08-12T09:02:40;1.23;;;0.90;;
39612;SDS011;25303;48.896;13.342;2023-08-12T09:05:25;2.25;;;1.00;;
39612;SDS011;25303;48.896;13.342;2023-08-12T09:08:09;1.50;;;0.95;;
39612;SDS011;25303;48.896;13.342;2023-08-12T09:10:54;1.42;;;0.90;;
39612;SDS011;25303;48.896;13.342;2023-08-12T09:13:38;2.40;;;0.88;;
39612;SDS011;25303;48.896;13.342;2023-08-12T09:16:21;1.58;;;1.00;;
39612;SDS011;25303;48.896;13.342;2023-08-12T09:19:06;1.30;;;1.00;;
39612;SDS011;25303;48.896;13.342;2023-08-12T09:21:51;1.42;;;0.90;;
39612;SDS011;25303;48.896;13.342;2023-08-12T09:24:34;1.10;;;0.80;;
39612;SDS011;25303;48.896;13.342;2023-08-12T09:27:17;1.75;;;1.10;;
39612;SDS011;25303;48.896;13.342;2023-08-12T09:30:02;1.65;;;0.90;;
39612;SDS011;25303;48.896;13.342;2023-08-12T09:32:48;0.93;;;0.75;;
39612;SDS011;25303;48.896;13.342;2023-08-12T09:35:43;1.42;;;0.90;;
39612;SDS011;25303;48.896;13.342;2023-08-12T09:38:26;1.27;;;0.88;;
39612;SDS011;25303;48.896;13.342;2023-08-12T09:41:09;1.10;;;0.90;;
39612;SDS011;25303;48.896;13.342;2023-08-12T09:43:52;1.83;;;0.85;;
39612;SDS011;25303;48.896;13.342;2023-08-12T09:46:35;1.55;;;1.00;;
39612;SDS011;25303;48.896;13.342;2023-08-12T09:49:19;1.10;;;0.90;;
39612;SDS011;25303;48.896;13.342;2023-08-12T09:52:04;0.95;;;0.80;;
39612;SDS011;25303;48.896;13.342;2023-08-12T09:54:49;1.48;;;0.80;;
39612;SDS011;25303;48.896;13.342;2023-08-12T09:57:36;1.00;;;0.85;;
39612;SDS011;25303;48.896;13.342;2023-08-12T10:00:24;1.40;;;0.90;;
39612;SDS011;25303;48.896;13.342;2023-08-12T10:03:07;1.63;;;0.80;;
39612;SDS011;25303;48.896;13.342;2023-08-12T10:05:51;0.90;;;0.80;;
39612;SDS011;25303;48.896;13.342;2023-08-12T10:08:36;1.17;;;0.90;;
39612;SDS011;25303;48.896;13.342;2023-08-12T10:11:19;1.08;;;0.60;;
39612;SDS011;25303;48.896;13.342;2023-08-12T10:14:03;1.20;;;0.73;;
39612;SDS011;25303;48.896;13.342;2023-08-12T10:16:46;0.80;;;0.70;;
39612;SDS011;25303;48.896;13.342;2023-08-12T10:19:29;1.17;;;0.80;;
39612;SDS011;25303;48.896;13.342;2023-08-12T10:22:13;1.20;;;0.73;;
39612;SDS011;25303;48.896;13.342;2023-08-12T10:24:58;1.20;;;0.53;;
39612;SDS011;25303;48.896;13.342;2023-08-12T10:27:43;1.40;;;0.70;;
39612;SDS011;25303;48.896;13.342;2023-08-12T10:30:28;0.73;;;0.73;;
39612;SDS011;25303;48.896;13.342;2023-08-12T10:35:57;0.85;;;0.60;;
39612;SDS011;25303;48.896;13.342;2023-08-12T10:38:41;1.23;;;0.70;;
39612;SDS011;25303;48.896;13.342;2023-08-12T10:41:27;1.05;;;0.80;;
39612;SDS011;25303;48.896;13.342;2023-08-12T10:44:11;2.10;;;1.00;;
39612;SDS011;25303;48.896;13.342;2023-08-12T10:49:42;1.00;;;0.90;;
39612;SDS011;25303;48.896;13.342;2023-08-12T10:52:26;1.38;;;0.90;;
39612;SDS011;25303;48.896;13.342;2023-08-12T10:55:15;1.48;;;0.80;;
39612;SDS011;25303;48.896;13.342;2023-08-12T10:58:00;1.13;;;0.80;;
39612;SDS011;25303;48.896;13.342;2023-08-12T11:00:43;0.85;;;0.73;;
39612;SDS011;25303;48.896;13.342;2023-08-12T11:03:26;1.15;;;0.80;;
39612;SDS011;25303;48.896;13.342;2023-08-12T11:06:19;0.50;;;0.50;;
39612;SDS011;25303;48.896;13.342;2023-08-12T11:09:02;0.80;;;0.70;;
39612;SDS011;25303;48.896;13.342;2023-08-12T11:11:53;0.93;;;0.68;;
39612;SDS011;25303;48.896;13.342;2023-08-12T11:14:49;0.57;;;0.40;;
39612;SDS011;25303;48.896;13.342;2023-08-12T11:17:36;0.73;;;0.55;;
39612;SDS011;25303;48.896;13.342;2023-08-12T11:20:21;0.77;;;0.60;;
39612;SDS011;25303;48.896;13.342;2023-08-12T11:23:04;1.00;;;0.75;;
39612;SDS011;25303;48.896;13.342;2023-08-12T11:25:48;1.08;;;0.65;;
39612;SDS011;25303;48.896;13.342;2023-08-12T11:28:31;0.73;;;0.60;;
39612;SDS011;25303;48.896;13.342;2023-08-12T11:31:16;1.38;;;0.70;;
39612;SDS011;25303;48.896;13.342;2023-08-12T11:33:59;1.15;;;0.63;;
39612;SDS011;25303;48.896;13.342;2023-08-12T11:36:42;0.88;;;0.52;;
39612;SDS011;25303;48.896;13.342;2023-08-12T11:39:25;2.35;;;0.70;;
39612;SDS011;25303;48.896;13.342;2023-08-12T11:42:08;2.65;;;0.75;;
39612;SDS011;25303;48.896;13.342;2023-08-12T11:44:52;0.67;;;0.57;;
39612;SDS011;25303;48.896;13.342;2023-08-12T11:47:37;1.55;;;0.63;;
39612;SDS011;25303;48.896;13.342;2023-08-12T11:50:22;1.15;;;0.70;;
39612;SDS011;25303;48.896;13.342;2023-08-12T11:53:06;1.17;;;0.52;;
39612;SDS011;25303;48.896;13.342;2023-08-12T11:55:49;0.50;;;0.40;;
39612;SDS011;25303;48.896;13.342;2023-08-12T11:58:35;0.60;;;0.50;;
39612;SDS011;25303;48.896;13.342;2023-08-12T12:01:33;0.50;;;0.40;;
39612;SDS011;25303;48.896;13.342;2023-08-12T12:04:17;1.10;;;0.60;;
39612;SDS011;25303;48.896;13.342;2023-08-12T12:07:01;0.45;;;0.40;;
39612;SDS011;25303;48.896;13.342;2023-08-12T12:09:50;0.70;;;0.43;;
39612;SDS011;25303;48.896;13.342;2023-08-12T12:12:33;1.02;;;0.60;;
39612;SDS011;25303;48.896;13.342;2023-08-12T12:15:17;0.70;;;0.60;;
39612;SDS011;25303;48.896;13.342;2023-08-12T12:18:00;1.10;;;0.60;;
39612;SDS011;25303;48.896;13.342;2023-08-12T12:20:57;1.15;;;0.55;;
39612;SDS011;25303;48.896;13.342;2023-08-12T12:23:41;0.60;;;0.50;;
39612;SDS011;25303;48.896;13.342;2023-08-12T12:26:23;0.45;;;0.45;;
39612;SDS011;25303;48.896;13.342;2023-08-12T12:29:07;0.93;;;0.60;;
39612;SDS011;25303;48.896;13.342;2023-08-12T12:31:53;0.47;;;0.45;;
39612;SDS011;25303;48.896;13.342;2023-08-12T12:34:35;0.52;;;0.50;;
39612;SDS011;25303;48.896;13.342;2023-08-12T12:37:20;0.40;;;0.35;;
39612;SDS011;25303;48.896;13.342;2023-08-12T12:40:03;1.23;;;0.60;;
39612;SDS011;25303;48.896;13.342;2023-08-12T12:42:47;1.30;;;0.60;;
39612;SDS011;25303;48.896;13.342;2023-08-12T12:45:30;0.80;;;0.70;;
39612;SDS011;25303;48.896;13.342;2023-08-12T12:48:13;0.57;;;0.50;;
39612;SDS011;25303;48.896;13.342;2023-08-12T12:50:56;0.93;;;0.60;;
39612;SDS011;25303;48.896;13.342;2023-08-12T12:53:40;0.73;;;0.60;;
39612;SDS011;25303;48.896;13.342;2023-08-12T12:56:23;1.70;;;0.70;;
39612;SDS011;25303;48.896;13.342;2023-08-12T12:59:06;1.05;;;0.60;;
39612;SDS011;25303;48.896;13.342;2023-08-12T13:01:49;1.33;;;0.63;;
39612;SDS011;25303;48.896;13.342;2023-08-12T13:04:32;0.60;;;0.50;;
39612;SDS011;25303;48.896;13.342;2023-08-12T13:07:15;0.80;;;0.70;;
39612;SDS011;25303;48.896;13.342;2023-08-12T13:09:59;2.00;;;0.52;;
39612;SDS011;25303;48.896;13.342;2023-08-12T13:12:42;2.83;;;0.70;;
39612;SDS011;25303;48.896;13.342;2023-08-12T13:15:25;0.60;;;0.50;;
39612;SDS011;25303;48.896;13.342;2023-08-12T13:18:08;0.63;;;0.60;;
39612;SDS011;25303;48.896;13.342;2023-08-12T13:20:51;1.00;;;0.68;;
39612;SDS011;25303;48.896;13.342;2023-08-12T13:23:34;0.70;;;0.50;;
39612;SDS011;25303;48.896;13.342;2023-08-12T13:26:18;1.02;;;0.70;;
39612;SDS011;25303;48.896;13.342;2023-08-12T13:29:03;0.75;;;0.70;;
39612;SDS011;25303;48.896;13.342;2023-08-12T13:31:46;1.02;;;0.77;;
39612;SDS011;25303;48.896;13.342;2023-08-12T13:34:29;1.15;;;0.70;;
39612;SDS011;25303;48.896;13.342;2023-08-12T13:37:11;0.80;;;0.68;;
39612;SDS011;25303;48.896;13.342;2023-08-12T13:39:54;3.05;;;0.85;;
39612;SDS011;25303;48.896;13.342;2023-08-12T13:42:39;1.45;;;0.60;;
39612;SDS011;25303;48.896;13.342;2023-08-12T13:45:21;0.68;;;0.50;;
39612;SDS011;25303;48.896;13.342;2023-08-12T13:48:05;0.93;;;0.50;;
39612;SDS011;25303;48.896;13.342;2023-08-12T13:50:48;1.17;;;0.60;;
39612;SDS011;25303;48.896;13.342;2023-08-12T13:53:33;1.25;;;0.50;;
39612;SDS011;25303;48.896;13.342;2023-08-12T13:56:16;0.70;;;0.60;;
39612;SDS011;25303;48.896;13.342;2023-08-12T13:59:00;0.63;;;0.50;;
39612;SDS011;25303;48.896;13.342;2023-08-12T14:01:43;0.65;;;0.57;;
39612;SDS011;25303;48.896;13.342;2023-08-12T14:04:26;0.77;;;0.60;;
39612;SDS011;25303;48.896;13.342;2023-08-12T14:07:09;0.67;;;0.50;;
39612;SDS011;25303;48.896;13.342;2023-08-12T14:09:52;1.27;;;0.60;;
39612;SDS011;25303;48.896;13.342;2023-08-12T14:12:35;1.02;;;0.60;;
39612;SDS011;25303;48.896;13.342;2023-08-12T14:15:19;0.50;;;0.40;;
39612;SDS011;25303;48.896;13.342;2023-08-12T14:18:02;0.80;;;0.50;;
39612;SDS011;25303;48.896;13.342;2023-08-12T14:20:46;1.13;;;0.63;;
39612;SDS011;25303;48.896;13.342;2023-08-12T14:23:29;1.58;;;0.55;;
39612;SDS011;25303;48.896;13.342;2023-08-12T14:26:11;0.70;;;0.50;;
39612;SDS011;25303;48.896;13.342;2023-08-12T14:28:54;0.95;;;0.50;;
39612;SDS011;25303;48.896;13.342;2023-08-12T14:31:39;0.40;;;0.40;;
39612;SDS011;25303;48.896;13.342;2023-08-12T14:34:22;0.40;;;0.40;;
39612;SDS011;25303;48.896;13.342;2023-08-12T14:37:05;1.10;;;0.45;;
39612;SDS011;25303;48.896;13.342;2023-08-12T14:39:49;0.45;;;0.45;;
39612;SDS011;25303;48.896;13.342;2023-08-12T14:42:32;0.70;;;0.50;;
39612;SDS011;25303;48.896;13.342;2023-08-12T14:45:15;0.93;;;0.50;;
39612;SDS011;25303;48.896;13.342;2023-08-12T14:47:59;0.60;;;0.50;;
39612;SDS011;25303;48.896;13.342;2023-08-12T14:50:42;0.65;;;0.50;;
39612;SDS011;25303;48.896;13.342;2023-08-12T14:53:25;1.23;;;0.50;;
39612;SDS011;25303;48.896;13.342;2023-08-12T14:56:08;0.70;;;0.50;;
39612;SDS011;25303;48.896;13.342;2023-08-12T14:58:51;0.85;;;0.60;;
39612;SDS011;25303;48.896;13.342;2023-08-12T15:01:34;0.43;;;0.43;;
39612;SDS011;25303;48.896;13.342;2023-08-12T15:04:18;0.57;;;0.40;;
39612;SDS011;25303;48.896;13.342;2023-08-12T15:09:44;0.50;;;0.50;;
39612;SDS011;25303;48.896;13.342;2023-08-12T15:12:27;0.88;;;0.60;;
39612;SDS011;25303;48.896;13.342;2023-08-12T15:15:10;0.88;;;0.60;;
39612;SDS011;25303;48.896;13.342;2023-08-12T15:17:53;0.73;;;0.50;;
39612;SDS011;25303;48.896;13.342;2023-08-12T15:20:37;0.80;;;0.57;;
39612;SDS011;25303;48.896;13.342;2023-08-12T15:23:20;2.08;;;0.60;;
39612;SDS011;25303;48.896;13.342;2023-08-12T15:26:04;1.60;;;0.73;;
39612;SDS011;25303;48.896;13.342;2023-08-12T15:28:47;1.00;;;0.60;;
39612;SDS011;25303;48.896;13.342;2023-08-12T15:31:29;1.58;;;0.60;;
39612;SDS011;25303;48.896;13.342;2023-08-12T15:34:12;1.50;;;0.63;;
39612;SDS011;25303;48.896;13.342;2023-08-12T15:36:56;1.00;;;0.70;;
39612;SDS011;25303;48.896;13.342;2023-08-12T15:42:22;4.35;;;0.95;;
39612;SDS011;25303;48.896;13.342;2023-08-12T15:45:06;0.73;;;0.65;;
39612;SDS011;25303;48.896;13.342;2023-08-12T15:47:49;0.80;;;0.75;;
39612;SDS011;25303;48.896;13.342;2023-08-12T15:50:34;1.38;;;0.93;;
39612;SDS011;25303;48.896;13.342;2023-08-12T15:53:20;1.23;;;0.80;;
39612;SDS011;25303;48.896;13.342;2023-08-12T15:56:03;1.08;;;0.88;;
39612;SDS011;25303;48.896;13.342;2023-08-12T15:58:46;2.15;;;0.80;;
39612;SDS011;25303;48.896;13.342;2023-08-12T16:01:29;1.17;;;0.80;;
39612;SDS011;25303;48.896;13.342;2023-08-12T16:04:13;0.77;;;0.67;;
39612;SDS011;25303;48.896;13.342;2023-08-12T16:06:56;1.02;;;0.70;;
39612;SDS011;25303;48.896;13.342;2023-08-12T16:09:40;1.27;;;1.00;;
39612;SDS011;25303;48.896;13.342;2023-08-12T16:12:23;1.10;;;1.00;;
39612;SDS011;25303;48.896;13.342;2023-08-12T16:15:06;1.65;;;0.93;;
39612;SDS011;25303;48.896;13.342;2023-08-12T16:17:50;1.47;;;1.10;;
39612;SDS011;25303;48.896;13.342;2023-08-12T16:20:33;1.33;;;0.88;;
39612;SDS011;25303;48.896;13.342;2023-08-12T16:23:16;0.98;;;0.75;;
39612;SDS011;25303;48.896;13.342;2023-08-12T16:26:00;1.48;;;0.70;;
39612;SDS011;25303;48.896;13.342;2023-08-12T16:28:43;1.35;;;0.90;;
39612;SDS011;25303;48.896;13.342;2023-08-12T16:31:29;1.13;;;0.82;;
39612;SDS011;25303;48.896;13.342;2023-08-12T16:34:12;1.02;;;0.80;;
39612;SDS011;25303;48.896;13.342;2023-08-12T16:36:55;1.30;;;0.90;;
39612;SDS011;25303;48.896;13.342;2023-08-12T16:39:58;2.95;;;0.80;;
39612;SDS011;25303;48.896;13.342;2023-08-12T16:42:43;1.00;;;0.70;;